createdAt,value
2019-03-01T00:01:29.213Z,24.32
2019-03-01T00:08:18.360Z,29.23
2019-03-01T00:14:50.654Z,28.47
2019-03-01T00:21:24.105Z,27.42
2019-03-01T00:28:00.939Z,26.55
2019-03-01T00:34:34.328Z,25.97
2019-03-01T00:40:50.239Z,25.68
2019-03-01T00:46:53.533Z,22.22
2019-03-01T00:52:55.828Z,22.87
2019-03-01T00:58:58.120Z,24.35
2019-03-01T01:05:00.403Z,24.15
2019-03-01T01:11:02.777Z,22.87
2019-03-01T01:17:05.190Z,24.63
2019-03-01T01:23:07.668Z,24.07
2019-03-01T01:29:09.940Z,21.75
2019-03-01T01:35:12.176Z,23.73
2019-03-01T01:41:14.575Z,29.87
2019-03-01T01:47:16.908Z,30.68
2019-03-01T01:53:19.072Z,24.90
2019-03-01T01:59:21.257Z,32.35
2019-03-01T02:05:23.834Z,30.75
2019-03-01T02:11:26.014Z,22.52
2019-03-01T02:17:28.413Z,25.08
2019-03-01T02:23:32.762Z,21.33
2019-03-01T02:29:34.907Z,21.00
2019-03-01T02:35:38.203Z,22.65
2019-03-01T02:41:42.991Z,19.98
2019-03-01T02:47:45.210Z,17.30
2019-03-01T02:53:47.595Z,19.60
2019-03-01T02:59:49.743Z,17.15
2019-03-01T03:05:56.909Z,27.55
2019-03-01T03:11:59.080Z,16.35
2019-03-01T03:18:01.210Z,16.95
2019-03-01T03:24:03.661Z,18.85
2019-03-01T03:30:08.449Z,16.70
2019-03-01T03:36:12.276Z,15.45
2019-03-01T03:42:14.519Z,15.90
2019-03-01T03:48:16.811Z,13.83
2019-03-01T03:54:18.989Z,14.15
2019-03-01T04:00:21.480Z,15.15
2019-03-01T04:06:23.782Z,11.68
2019-03-01T04:12:25.944Z,15.72
2019-03-01T04:18:28.193Z,14.90
2019-03-01T04:24:30.508Z,15.98
2019-03-01T04:30:32.652Z,18.90
2019-03-01T04:36:34.830Z,14.60
2019-03-01T04:42:37.077Z,11.88
2019-03-01T04:48:39.325Z,19.45
2019-03-01T04:54:41.549Z,14.18
2019-03-01T05:00:43.802Z,12.70
2019-03-01T05:06:45.980Z,16.57
2019-03-01T05:12:48.136Z,16.10
2019-03-01T05:18:51.492Z,17.02
2019-03-01T05:24:53.659Z,15.30
2019-03-01T05:30:55.834Z,17.40
2019-03-01T05:36:58.204Z,18.25
2019-03-01T05:43:00.363Z,18.48
2019-03-01T05:49:07.606Z,17.15
2019-03-01T05:55:10.207Z,16.20
2019-03-01T06:01:19.946Z,13.28
2019-03-01T06:08:02.545Z,19.30
2019-03-01T06:14:47.561Z,19.32
2019-03-01T06:21:10.077Z,15.75
2019-03-01T06:28:09.316Z,8.13
2019-03-01T06:34:43.338Z,6.28
2019-03-01T06:41:23.220Z,6.72
2019-03-01T06:47:38.049Z,6.95
2019-03-01T06:53:40.341Z,7.58
2019-03-01T06:59:44.794Z,3.47
2019-03-01T07:05:47.152Z,5.17
2019-03-01T07:11:49.519Z,5.90
2019-03-01T07:17:56.412Z,6.15
2019-03-01T07:23:59.592Z,7.45
2019-03-01T07:30:01.782Z,7.20
2019-03-01T07:36:06.101Z,8.68
2019-03-01T07:42:08.628Z,7.53
2019-03-01T07:48:12.497Z,6.92
2019-03-01T07:54:16.983Z,10.32
2019-03-01T08:00:21.033Z,7.08
2019-03-01T08:06:23.359Z,5.90
2019-03-01T08:12:25.724Z,4.97
2019-03-01T08:18:30.019Z,4.35
2019-03-01T08:24:32.267Z,5.42
2019-03-01T08:30:34.647Z,4.53
2019-03-01T08:36:38.582Z,7.05
2019-03-01T08:42:40.793Z,6.30
2019-03-01T08:48:42.952Z,8.05
2019-03-01T08:54:47.270Z,6.10
2019-03-01T09:00:59.892Z,7.37
2019-03-01T09:07:02.861Z,7.75
2019-03-01T09:13:05.177Z,6.87
2019-03-01T09:19:07.445Z,6.60
2019-03-01T09:25:10.366Z,9.40
2019-03-01T09:31:13.615Z,5.25
2019-03-01T09:37:15.775Z,6.60
2019-03-01T09:43:17.959Z,6.42
2019-03-01T09:49:21.478Z,4.33
2019-03-01T09:55:24.404Z,2.47
2019-03-01T10:01:26.776Z,3.00
2019-03-01T10:07:29.129Z,2.95
2019-03-01T10:13:31.487Z,2.80
2019-03-01T10:19:33.801Z,4.22
2019-03-01T10:25:36.098Z,2.05
2019-03-01T10:31:38.263Z,2.87
2019-03-01T10:37:40.418Z,4.80
2019-03-01T10:43:43.196Z,6.08
2019-03-01T10:49:45.352Z,4.70
2019-03-01T10:55:47.639Z,3.37
2019-03-01T11:01:51.445Z,2.65
2019-03-01T11:07:53.802Z,3.25
2019-03-01T11:13:56.080Z,3.02
2019-03-01T11:19:58.387Z,4.22
2019-03-01T11:26:01.764Z,3.80
2019-03-01T11:32:04.131Z,3.35
2019-03-01T11:38:06.697Z,4.85
2019-03-01T11:44:09.032Z,2.80
2019-03-01T11:50:14.726Z,3.25
2019-03-01T11:56:17.031Z,4.20
2019-03-01T12:02:19.433Z,2.77
2019-03-01T12:08:21.672Z,2.58
2019-03-01T12:14:24.103Z,4.70
2019-03-01T12:20:26.327Z,6.03
2019-03-01T12:26:28.596Z,7.37
2019-03-01T12:32:30.844Z,3.42
2019-03-01T12:38:33.354Z,2.20
2019-03-01T12:44:35.679Z,2.55
2019-03-01T12:50:37.916Z,4.20
2019-03-01T12:56:40.546Z,5.35
2019-03-01T13:02:42.811Z,5.45
2019-03-01T13:08:51.346Z,8.48
2019-03-01T13:14:52.188Z,8.80
2019-03-01T13:20:54.386Z,11.20
2019-03-01T13:26:57.706Z,9.55
2019-03-01T13:33:02.455Z,7.15
2019-03-01T13:39:07.743Z,5.47
2019-03-01T13:45:15.061Z,3.22
2019-03-01T13:51:19.004Z,3.35
2019-03-01T13:57:21.590Z,4.58
2019-03-01T14:03:26.492Z,2.10
2019-03-01T14:09:34.530Z,3.87
2019-03-01T14:15:39.710Z,3.10
2019-03-01T14:21:41.991Z,1.85
2019-03-01T14:27:44.252Z,2.10
2019-03-01T14:33:46.485Z,2.72
2019-03-01T14:39:48.991Z,2.17
2019-03-01T14:45:51.659Z,1.50
2019-03-01T14:51:53.869Z,2.47
2019-03-01T14:58:03.557Z,3.00
2019-03-01T15:04:05.767Z,1.92
2019-03-01T15:10:10.379Z,2.25
2019-03-01T15:16:12.624Z,2.47
2019-03-01T15:22:21.808Z,2.87
2019-03-01T15:28:24.165Z,2.27
2019-03-01T15:34:27.523Z,3.42
2019-03-01T15:40:31.474Z,3.55
2019-03-01T15:46:33.968Z,3.83
2019-03-01T15:52:36.439Z,10.68
2019-03-01T15:58:38.840Z,3.42
2019-03-01T16:04:42.107Z,3.20
2019-03-01T16:10:44.624Z,2.17
2019-03-01T16:16:49.172Z,3.60
2019-03-01T16:22:51.166Z,3.83
2019-03-01T16:28:55.041Z,3.75
2019-03-01T16:34:59.849Z,4.95
2019-03-01T16:41:07.497Z,3.37
2019-03-01T16:47:06.684Z,2.22
2019-03-01T16:53:10.814Z,2.75
2019-03-01T16:59:13.080Z,2.72
2019-03-01T17:05:20.140Z,2.67
2019-03-01T17:11:23.481Z,3.15
2019-03-01T17:17:25.898Z,5.20
2019-03-01T17:23:28.494Z,8.50
2019-03-01T17:29:35.805Z,4.25
2019-03-01T17:35:37.840Z,9.20
2019-03-01T17:41:52.251Z,8.45
2019-03-01T17:47:55.379Z,78.95
2019-03-01T17:53:57.868Z,13.45
2019-03-01T18:00:00.008Z,6.83
2019-03-01T18:06:03.269Z,11.35
2019-03-01T18:12:05.592Z,7.42
2019-03-01T18:18:08.883Z,6.42
2019-03-01T18:24:14.343Z,4.97
2019-03-01T18:30:19.883Z,7.83
2019-03-01T18:36:21.783Z,14.25
2019-03-01T18:42:24.051Z,36.75
2019-03-01T18:48:26.252Z,19.37
2019-03-01T18:54:28.627Z,11.12
2019-03-01T19:00:35.840Z,6.60
2019-03-01T19:06:36.808Z,9.65
2019-03-01T19:12:39.377Z,9.28
2019-03-01T19:18:42.246Z,12.18
2019-03-01T19:24:46.838Z,10.90
2019-03-01T19:30:50.277Z,8.73
2019-03-01T19:36:54.357Z,9.58
2019-03-01T19:42:57.654Z,9.80
2019-03-01T19:49:00.958Z,7.90
2019-03-01T19:55:04.282Z,7.30
2019-03-01T20:01:06.606Z,7.47
2019-03-01T20:07:09.622Z,8.45
2019-03-01T20:13:13.016Z,8.75
2019-03-01T20:19:17.089Z,10.45
2019-03-01T20:25:21.219Z,9.75
2019-03-01T20:31:24.617Z,8.50
2019-03-01T20:37:27.899Z,13.05
2019-03-01T20:43:31.019Z,11.93
2019-03-01T20:49:35.717Z,11.68
2019-03-01T20:55:38.378Z,17.23
2019-03-01T21:01:40.638Z,18.00
2019-03-01T21:07:43.064Z,15.85
2019-03-01T21:13:45.813Z,23.52
2019-03-01T21:19:49.310Z,17.23
2019-03-01T21:25:51.740Z,14.90
2019-03-01T21:31:54.176Z,14.15
2019-03-01T21:37:56.627Z,15.40
2019-03-01T21:43:58.847Z,16.55
2019-03-01T21:50:03.946Z,21.05
2019-03-01T21:56:08.361Z,18.37
2019-03-01T22:02:09.126Z,18.98
2019-03-01T22:08:12.905Z,23.80
2019-03-01T22:14:15.310Z,21.25
2019-03-01T22:20:17.660Z,20.30
2019-03-01T22:26:19.983Z,23.65
2019-03-01T22:32:22.175Z,20.77
2019-03-01T22:38:24.437Z,17.98
2019-03-01T22:44:26.715Z,13.58
2019-03-01T22:50:28.854Z,14.80
2019-03-01T22:56:31.018Z,14.83
2019-03-01T23:02:33.689Z,17.40
2019-03-01T23:08:36.855Z,17.87
2019-03-01T23:14:40.110Z,16.25
2019-03-01T23:20:42.382Z,14.75
2019-03-01T23:26:44.680Z,16.75
2019-03-01T23:32:48.792Z,18.87
2019-03-01T23:38:53.211Z,19.15
2019-03-01T23:44:55.373Z,23.22
2019-03-01T23:50:57.776Z,25.27
2019-03-01T23:57:01.998Z,22.02
